sensor_id;sensor_type;location;lat;lon;timestamp;temperature;humidity
17954;DHT22;9102;53.548;9.926;2022-11-20T00:02:12;2.80;99.90
17954;DHT22;9102;53.548;9.926;2022-11-20T00:04:40;2.80;99.90
17954;DHT22;9102;53.548;9.926;2022-11-20T00:07:07;2.80;99.90
17954;DHT22;9102;53.548;9.926;2022-11-20T00:09:33;2.80;99.90
17954;DHT22;9102;53.548;9.926;2022-11-20T00:12:00;2.80;99.90
17954;DHT22;9102;53.548;9.926;2022-11-20T00:14:27;2.80;99.90
17954;DHT22;9102;53.548;9.926;2022-11-20T00:16:55;2.80;99.90
17954;DHT22;9102;53.548;9.926;2022-11-20T00:19:22;2.80;99.90
17954;DHT22;9102;53.548;9.926;2022-11-20T00:21:49;2.80;99.90
17954;DHT22;9102;53.548;9.926;2022-11-20T00:24:17;2.80;99.90
17954;DHT22;9102;53.548;9.926;2022-11-20T00:26:43;2.90;99.90
17954;DHT22;9102;53.548;9.926;2022-11-20T00:29:10;2.80;99.90
17954;DHT22;9102;53.548;9.926;2022-11-20T00:31:37;2.80;99.90
17954;DHT22;9102;53.548;9.926;2022-11-20T00:34:05;2.80;99.90
17954;DHT22;9102;53.548;9.926;2022-11-20T00:36:33;2.80;99.90
17954;DHT22;9102;53.548;9.926;2022-11-20T00:39:00;2.80;99.90
17954;DHT22;9102;53.548;9.926;2022-11-20T00:41:28;2.80;99.90
17954;DHT22;9102;53.548;9.926;2022-11-20T00:43:56;2.80;99.90
17954;DHT22;9102;53.548;9.926;2022-11-20T00:46:24;2.80;99.90
17954;DHT22;9102;53.548;9.926;2022-11-20T00:48:51;2.80;99.90
17954;DHT22;9102;53.548;9.926;2022-11-20T00:51:21;2.80;99.90
17954;DHT22;9102;53.548;9.926;2022-11-20T00:53:48;2.80;99.90
17954;DHT22;9102;53.548;9.926;2022-11-20T00:56:16;2.80;99.90
17954;DHT22;9102;53.548;9.926;2022-11-20T00:58:46;2.80;99.90
17954;DHT22;9102;53.548;9.926;2022-11-20T01:01:33;2.80;99.90
17954;DHT22;9102;53.548;9.926;2022-11-20T01:04:00;2.80;99.90
17954;DHT22;9102;53.548;9.926;2022-11-20T01:06:29;2.80;99.90
17954;DHT22;9102;53.548;9.926;2022-11-20T01:08:59;2.70;99.90
17954;DHT22;9102;53.548;9.926;2022-11-20T01:11:27;2.70;99.90
17954;DHT22;9102;53.548;9.926;2022-11-20T01:13:55;2.80;99.90
17954;DHT22;9102;53.548;9.926;2022-11-20T01:16:25;2.80;99.90
17954;DHT22;9102;53.548;9.926;2022-11-20T01:18:53;2.80;99.90
17954;DHT22;9102;53.548;9.926;2022-11-20T01:21:22;2.80;99.90
17954;DHT22;9102;53.548;9.926;2022-11-20T01:23:51;2.80;99.90
17954;DHT22;9102;53.548;9.926;2022-11-20T01:26:19;2.70;99.90
17954;DHT22;9102;53.548;9.926;2022-11-20T01:28:47;2.70;99.90
17954;DHT22;9102;53.548;9.926;2022-11-20T01:31:17;2.70;99.90
17954;DHT22;9102;53.548;9.926;2022-11-20T01:33:45;2.80;99.90
17954;DHT22;9102;53.548;9.926;2022-11-20T01:36:13;2.80;99.90
17954;DHT22;9102;53.548;9.926;2022-11-20T01:38:40;2.80;99.90
17954;DHT22;9102;53.548;9.926;2022-11-20T01:41:09;2.80;99.90
17954;DHT22;9102;53.548;9.926;2022-11-20T01:43:57;2.80;99.90
17954;DHT22;9102;53.548;9.926;2022-11-20T01:46:23;2.80;99.90
17954;DHT22;9102;53.548;9.926;2022-11-20T01:48:54;2.80;99.90
17954;DHT22;9102;53.548;9.926;2022-11-20T01:51:26;2.90;99.90
17954;DHT22;9102;53.548;9.926;2022-11-20T01:53:55;2.80;99.90
17954;DHT22;9102;53.548;9.926;2022-11-20T01:56:25;2.80;99.90
17954;DHT22;9102;53.548;9.926;2022-11-20T01:58:58;2.80;99.90
17954;DHT22;9102;53.548;9.926;2022-11-20T02:01:27;2.80;99.90
17954;DHT22;9102;53.548;9.926;2022-11-20T02:03:54;2.80;99.90
17954;DHT22;9102;53.548;9.926;2022-11-20T02:06:24;2.70;99.90
17954;DHT22;9102;53.548;9.926;2022-11-20T02:08:52;2.70;99.90
17954;DHT22;9102;53.548;9.926;2022-11-20T02:11:19;2.80;99.90
17954;DHT22;9102;53.548;9.926;2022-11-20T02:13:48;2.70;99.90
17954;DHT22;9102;53.548;9.926;2022-11-20T02:16:17;2.70;99.90
17954;DHT22;9102;53.548;9.926;2022-11-20T02:18:46;2.80;99.90
17954;DHT22;9102;53.548;9.926;2022-11-20T02:21:20;2.80;99.90
17954;DHT22;9102;53.548;9.926;2022-11-20T02:24:02;2.70;99.90
17954;DHT22;9102;53.548;9.926;2022-11-20T02:26:31;2.70;99.90
17954;DHT22;9102;53.548;9.926;2022-11-20T02:28:59;2.70;99.90
17954;DHT22;9102;53.548;9.926;2022-11-20T02:31:26;2.70;99.90
17954;DHT22;9102;53.548;9.926;2022-11-20T02:33:57;2.70;99.90
17954;DHT22;9102;53.548;9.926;2022-11-20T02:36:26;2.60;99.90
17954;DHT22;9102;53.548;9.926;2022-11-20T02:38:54;2.70;99.90
17954;DHT22;9102;53.548;9.926;2022-11-20T02:41:31;2.70;99.90
17954;DHT22;9102;53.548;9.926;2022-11-20T02:43:57;2.60;99.90
17954;DHT22;9102;53.548;9.926;2022-11-20T02:46:24;2.60;99.90
17954;DHT22;9102;53.548;9.926;2022-11-20T02:48:51;2.60;99.90
17954;DHT22;9102;53.548;9.926;2022-11-20T02:51:18;2.60;99.90
17954;DHT22;9102;53.548;9.926;2022-11-20T02:53:45;2.60;99.90
17954;DHT22;9102;53.548;9.926;2022-11-20T02:56:11;2.60;99.90
17954;DHT22;9102;53.548;9.926;2022-11-20T02:58:40;2.60;99.90
17954;DHT22;9102;53.548;9.926;2022-11-20T03:01:06;2.60;99.90
17954;DHT22;9102;53.548;9.926;2022-11-20T03:03:33;2.60;99.90
17954;DHT22;9102;53.548;9.926;2022-11-20T03:06:00;2.60;99.90
17954;DHT22;9102;53.548;9.926;2022-11-20T03:08:27;2.60;99.90
17954;DHT22;9102;53.548;9.926;2022-11-20T03:10:54;2.60;99.90
17954;DHT22;9102;53.548;9.926;2022-11-20T03:13:21;2.60;99.90
17954;DHT22;9102;53.548;9.926;2022-11-20T03:15:49;2.60;99.90
17954;DHT22;9102;53.548;9.926;2022-11-20T03:18:16;2.60;99.90
17954;DHT22;9102;53.548;9.926;2022-11-20T03:20:43;2.60;99.90
17954;DHT22;9102;53.548;9.926;2022-11-20T03:23:10;2.60;99.90
17954;DHT22;9102;53.548;9.926;2022-11-20T03:25:36;2.70;99.90
17954;DHT22;9102;53.548;9.926;2022-11-20T03:28:03;2.60;99.90
17954;DHT22;9102;53.548;9.926;2022-11-20T03:30:30;2.60;99.90
17954;DHT22;9102;53.548;9.926;2022-11-20T03:32:58;2.60;99.90
17954;DHT22;9102;53.548;9.926;2022-11-20T03:35:25;2.60;99.90
17954;DHT22;9102;53.548;9.926;2022-11-20T03:37:52;2.60;99.90
17954;DHT22;9102;53.548;9.926;2022-11-20T03:40:19;2.60;99.90
17954;DHT22;9102;53.548;9.926;2022-11-20T03:42:46;2.60;99.90
17954;DHT22;9102;53.548;9.926;2022-11-20T03:45:13;2.50;99.90
17954;DHT22;9102;53.548;9.926;2022-11-20T03:47:39;2.50;99.90
17954;DHT22;9102;53.548;9.926;2022-11-20T03:50:09;2.50;99.90
17954;DHT22;9102;53.548;9.926;2022-11-20T03:52:36;2.50;99.90
17954;DHT22;9102;53.548;9.926;2022-11-20T03:55:03;2.60;99.90
17954;DHT22;9102;53.548;9.926;2022-11-20T03:57:30;2.60;99.90
17954;DHT22;9102;53.548;9.926;2022-11-20T03:59:57;2.50;99.90
17954;DHT22;9102;53.548;9.926;2022-11-20T04:02:24;2.50;99.90
17954;DHT22;9102;53.548;9.926;2022-11-20T04:04:50;2.50;99.90
17954;DHT22;9102;53.548;9.926;2022-11-20T04:07:19;2.50;99.90
17954;DHT22;9102;53.548;9.926;2022-11-20T04:09:45;2.50;99.90
17954;DHT22;9102;53.548;9.926;2022-11-20T04:12:12;2.40;99.90
17954;DHT22;9102;53.548;9.926;2022-11-20T04:14:39;2.40;99.90
17954;DHT22;9102;53.548;9.926;2022-11-20T04:17:06;2.40;99.90
17954;DHT22;9102;53.548;9.926;2022-11-20T04:19:33;2.40;99.90
17954;DHT22;9102;53.548;9.926;2022-11-20T04:22:00;2.40;99.90
17954;DHT22;9102;53.548;9.926;2022-11-20T04:24:29;2.40;99.90
17954;DHT22;9102;53.548;9.926;2022-11-20T04:26:56;2.40;99.90
17954;DHT22;9102;53.548;9.926;2022-11-20T04:29:24;2.40;99.90
17954;DHT22;9102;53.548;9.926;2022-11-20T04:31:52;2.50;99.90
17954;DHT22;9102;53.548;9.926;2022-11-20T04:34:20;2.40;99.90
17954;DHT22;9102;53.548;9.926;2022-11-20T04:36:47;2.50;99.90
17954;DHT22;9102;53.548;9.926;2022-11-20T04:39:14;2.50;99.90
17954;DHT22;9102;53.548;9.926;2022-11-20T04:41:43;2.50;99.90
17954;DHT22;9102;53.548;9.926;2022-11-20T04:44:10;2.50;99.90
17954;DHT22;9102;53.548;9.926;2022-11-20T04:46:39;2.40;99.90
17954;DHT22;9102;53.548;9.926;2022-11-20T04:49:07;2.40;99.90
17954;DHT22;9102;53.548;9.926;2022-11-20T04:51:35;2.40;99.90
17954;DHT22;9102;53.548;9.926;2022-11-20T04:54:02;2.40;99.90
17954;DHT22;9102;53.548;9.926;2022-11-20T04:56:28;2.40;99.90
17954;DHT22;9102;53.548;9.926;2022-11-20T04:59:00;2.40;99.90
17954;DHT22;9102;53.548;9.926;2022-11-20T05:04:48;2.40;99.90
17954;DHT22;9102;53.548;9.926;2022-11-20T05:07:15;2.30;99.90
17954;DHT22;9102;53.548;9.926;2022-11-20T05:09:42;2.40;99.90
17954;DHT22;9102;53.548;9.926;2022-11-20T05:12:09;2.40;99.90
17954;DHT22;9102;53.548;9.926;2022-11-20T05:14:37;2.40;99.90
17954;DHT22;9102;53.548;9.926;2022-11-20T05:17:04;2.40;99.90
17954;DHT22;9102;53.548;9.926;2022-11-20T05:19:31;2.30;99.90
17954;DHT22;9102;53.548;9.926;2022-11-20T05:21:58;2.30;99.90
17954;DHT22;9102;53.548;9.926;2022-11-20T05:24:25;2.30;99.90
17954;DHT22;9102;53.548;9.926;2022-11-20T05:26:52;2.30;99.90
17954;DHT22;9102;53.548;9.926;2022-11-20T05:29:18;2.30;99.90
17954;DHT22;9102;53.548;9.926;2022-11-20T05:31:46;2.20;99.90
17954;DHT22;9102;53.548;9.926;2022-11-20T05:34:13;2.20;99.90
17954;DHT22;9102;53.548;9.926;2022-11-20T05:36:40;2.20;99.90
17954;DHT22;9102;53.548;9.926;2022-11-20T05:39:07;2.10;99.90
17954;DHT22;9102;53.548;9.926;2022-11-20T05:41:35;2.20;99.90
17954;DHT22;9102;53.548;9.926;2022-11-20T05:44:02;2.10;99.90
17954;DHT22;9102;53.548;9.926;2022-11-20T05:46:28;2.10;99.90
17954;DHT22;9102;53.548;9.926;2022-11-20T05:48:57;2.10;99.90
17954;DHT22;9102;53.548;9.926;2022-11-20T05:51:25;2.00;99.90
17954;DHT22;9102;53.548;9.926;2022-11-20T05:53:52;2.10;99.90
17954;DHT22;9102;53.548;9.926;2022-11-20T05:56:19;2.00;99.90
17954;DHT22;9102;53.548;9.926;2022-11-20T05:58:47;2.10;99.90
17954;DHT22;9102;53.548;9.926;2022-11-20T06:01:16;2.10;99.90
17954;DHT22;9102;53.548;9.926;2022-11-20T06:03:44;2.10;99.90
17954;DHT22;9102;53.548;9.926;2022-11-20T06:06:15;2.10;99.90
17954;DHT22;9102;53.548;9.926;2022-11-20T06:08:42;2.10;99.90
17954;DHT22;9102;53.548;9.926;2022-11-20T06:11:10;2.10;99.90
17954;DHT22;9102;53.548;9.926;2022-11-20T06:13:37;2.10;99.90
17954;DHT22;9102;53.548;9.926;2022-11-20T06:16:05;2.00;99.90
17954;DHT22;9102;53.548;9.926;2022-11-20T06:18:32;2.10;99.90
17954;DHT22;9102;53.548;9.926;2022-11-20T06:21:01;2.10;99.90
17954;DHT22;9102;53.548;9.926;2022-11-20T06:23:30;2.10;99.90
17954;DHT22;9102;53.548;9.926;2022-11-20T06:25:57;2.20;99.90
17954;DHT22;9102;53.548;9.926;2022-11-20T06:28:24;2.20;99.90
17954;DHT22;9102;53.548;9.926;2022-11-20T06:30:51;2.10;99.90
17954;DHT22;9102;53.548;9.926;2022-11-20T06:33:18;2.20;99.90
17954;DHT22;9102;53.548;9.926;2022-11-20T06:35:45;2.20;99.90
17954;DHT22;9102;53.548;9.926;2022-11-20T06:38:12;2.10;99.90
17954;DHT22;9102;53.548;9.926;2022-11-20T06:40:41;2.10;99.90
17954;DHT22;9102;53.548;9.926;2022-11-20T06:43:10;2.20;99.90
17954;DHT22;9102;53.548;9.926;2022-11-20T06:45:37;2.10;99.90
17954;DHT22;9102;53.548;9.926;2022-11-20T06:48:04;2.10;99.90
17954;DHT22;9102;53.548;9.926;2022-11-20T06:50:31;2.10;99.90
17954;DHT22;9102;53.548;9.926;2022-11-20T06:53:01;2.10;99.90
17954;DHT22;9102;53.548;9.926;2022-11-20T06:55:29;2.00;99.90
17954;DHT22;9102;53.548;9.926;2022-11-20T06:57:57;2.00;99.90
17954;DHT22;9102;53.548;9.926;2022-11-20T07:00:24;2.10;99.90
17954;DHT22;9102;53.548;9.926;2022-11-20T07:02:51;2.00;99.90
17954;DHT22;9102;53.548;9.926;2022-11-20T07:05:18;2.00;99.90
17954;DHT22;9102;53.548;9.926;2022-11-20T07:07:44;2.00;99.90
17954;DHT22;9102;53.548;9.926;2022-11-20T07:10:12;2.00;99.90
17954;DHT22;9102;53.548;9.926;2022-11-20T07:12:39;2.00;99.90
17954;DHT22;9102;53.548;9.926;2022-11-20T07:15:08;2.00;99.90
17954;DHT22;9102;53.548;9.926;2022-11-20T07:17:35;2.00;99.90
17954;DHT22;9102;53.548;9.926;2022-11-20T07:20:02;2.00;99.90
17954;DHT22;9102;53.548;9.926;2022-11-20T07:22:29;2.10;99.90
17954;DHT22;9102;53.548;9.926;2022-11-20T07:24:55;2.00;99.90
17954;DHT22;9102;53.548;9.926;2022-11-20T07:27:22;2.00;99.90
17954;DHT22;9102;53.548;9.926;2022-11-20T07:29:49;2.00;99.90
17954;DHT22;9102;53.548;9.926;2022-11-20T07:32:17;2.00;99.90
17954;DHT22;9102;53.548;9.926;2022-11-20T07:34:44;1.90;99.90
17954;DHT22;9102;53.548;9.926;2022-11-20T07:37:11;1.80;99.90
17954;DHT22;9102;53.548;9.926;2022-11-20T07:39:38;1.90;99.90
17954;DHT22;9102;53.548;9.926;2022-11-20T07:42:06;1.90;99.90
17954;DHT22;9102;53.548;9.926;2022-11-20T07:44:33;1.90;99.90
17954;DHT22;9102;53.548;9.926;2022-11-20T07:47:00;2.00;99.90
17954;DHT22;9102;53.548;9.926;2022-11-20T07:49:29;2.10;99.90
17954;DHT22;9102;53.548;9.926;2022-11-20T07:51:55;2.10;99.90
17954;DHT22;9102;53.548;9.926;2022-11-20T07:54:23;2.20;99.90
17954;DHT22;9102;53.548;9.926;2022-11-20T07:56:50;2.30;99.90
17954;DHT22;9102;53.548;9.926;2022-11-20T07:59:16;2.30;99.90
17954;DHT22;9102;53.548;9.926;2022-11-20T08:01:43;2.40;99.90
17954;DHT22;9102;53.548;9.926;2022-11-20T08:04:10;2.40;99.90
17954;DHT22;9102;53.548;9.926;2022-11-20T08:06:39;2.40;99.90
17954;DHT22;9102;53.548;9.926;2022-11-20T08:09:05;2.40;99.90
17954;DHT22;9102;53.548;9.926;2022-11-20T08:11:32;2.40;99.90
17954;DHT22;9102;53.548;9.926;2022-11-20T08:14:16;2.30;99.90
17954;DHT22;9102;53.548;9.926;2022-11-20T08:16:45;2.30;99.90
17954;DHT22;9102;53.548;9.926;2022-11-20T08:19:12;2.30;99.90
17954;DHT22;9102;53.548;9.926;2022-11-20T08:21:40;2.40;99.90
17954;DHT22;9102;53.548;9.926;2022-11-20T08:24:08;2.50;99.90
17954;DHT22;9102;53.548;9.926;2022-11-20T08:26:35;2.60;99.90
17954;DHT22;9102;53.548;9.926;2022-11-20T08:29:02;2.70;99.90
17954;DHT22;9102;53.548;9.926;2022-11-20T08:31:30;2.70;99.90
17954;DHT22;9102;53.548;9.926;2022-11-20T08:33:57;2.70;99.90
17954;DHT22;9102;53.548;9.926;2022-11-20T08:36:25;2.70;99.90
17954;DHT22;9102;53.548;9.926;2022-11-20T08:38:55;2.70;99.90
17954;DHT22;9102;53.548;9.926;2022-11-20T08:41:22;2.80;99.90
17954;DHT22;9102;53.548;9.926;2022-11-20T08:43:55;2.90;99.90
17954;DHT22;9102;53.548;9.926;2022-11-20T08:46:23;2.90;99.90
17954;DHT22;9102;53.548;9.926;2022-11-20T08:48:50;3.00;99.90
17954;DHT22;9102;53.548;9.926;2022-11-20T08:51:19;2.90;99.90
17954;DHT22;9102;53.548;9.926;2022-11-20T08:53:46;2.90;99.90
17954;DHT22;9102;53.548;9.926;2022-11-20T08:56:16;2.90;99.90
17954;DHT22;9102;53.548;9.926;2022-11-20T08:58:43;2.90;99.90
17954;DHT22;9102;53.548;9.926;2022-11-20T09:01:10;3.00;99.90
17954;DHT22;9102;53.548;9.926;2022-11-20T09:03:37;2.90;99.90
17954;DHT22;9102;53.548;9.926;2022-11-20T09:06:06;2.90;99.90
17954;DHT22;9102;53.548;9.926;2022-11-20T09:08:33;3.00;99.90
17954;DHT22;9102;53.548;9.926;2022-11-20T09:11:01;3.00;99.90
17954;DHT22;9102;53.548;9.926;2022-11-20T09:13:30;3.00;99.90
17954;DHT22;9102;53.548;9.926;2022-11-20T09:15:58;3.10;99.90
17954;DHT22;9102;53.548;9.926;2022-11-20T09:18:25;3.10;99.90
17954;DHT22;9102;53.548;9.926;2022-11-20T09:20:56;3.10;99.90
17954;DHT22;9102;53.548;9.926;2022-11-20T09:23:23;3.20;99.90
17954;DHT22;9102;53.548;9.926;2022-11-20T09:25:49;3.20;99.90
17954;DHT22;9102;53.548;9.926;2022-11-20T09:28:16;3.30;99.90
17954;DHT22;9102;53.548;9.926;2022-11-20T09:30:45;3.50;99.90
17954;DHT22;9102;53.548;9.926;2022-11-20T09:33:12;3.40;99.90
17954;DHT22;9102;53.548;9.926;2022-11-20T09:35:40;3.40;99.90
17954;DHT22;9102;53.548;9.926;2022-11-20T09:38:22;3.40;99.90
17954;DHT22;9102;53.548;9.926;2022-11-20T09:40:56;3.40;99.90
17954;DHT22;9102;53.548;9.926;2022-11-20T09:43:32;3.30;99.90
17954;DHT22;9102;53.548;9.926;2022-11-20T09:46:17;3.20;99.90
17954;DHT22;9102;53.548;9.926;2022-11-20T09:49:11;3.10;99.90
17954;DHT22;9102;53.548;9.926;2022-11-20T09:51:54;3.00;99.90
17954;DHT22;9102;53.548;9.926;2022-11-20T09:54:30;3.00;99.90
17954;DHT22;9102;53.548;9.926;2022-11-20T09:57:02;2.90;99.90
17954;DHT22;9102;53.548;9.926;2022-11-20T09:59:37;2.80;99.90
17954;DHT22;9102;53.548;9.926;2022-11-20T10:02:16;2.80;99.90
17954;DHT22;9102;53.548;9.926;2022-11-20T10:04:51;2.90;99.90
17954;DHT22;9102;53.548;9.926;2022-11-20T10:07:27;2.80;99.90
17954;DHT22;9102;53.548;9.926;2022-11-20T10:09:56;2.80;99.90
17954;DHT22;9102;53.548;9.926;2022-11-20T10:12:29;3.00;99.90
17954;DHT22;9102;53.548;9.926;2022-11-20T10:15:10;3.20;99.90
17954;DHT22;9102;53.548;9.926;2022-11-20T10:18:11;3.30;99.90
17954;DHT22;9102;53.548;9.926;2022-11-20T10:20:53;3.60;99.90
17954;DHT22;9102;53.548;9.926;2022-11-20T10:23:44;3.70;99.90
17954;DHT22;9102;53.548;9.926;2022-11-20T10:26:28;3.50;99.90
17954;DHT22;9102;53.548;9.926;2022-11-20T10:29:12;3.50;99.90
17954;DHT22;9102;53.548;9.926;2022-11-20T10:31:41;3.40;99.90
17954;DHT22;9102;53.548;9.926;2022-11-20T10:34:25;3.50;99.90
17954;DHT22;9102;53.548;9.926;2022-11-20T10:36:58;3.30;99.90
17954;DHT22;9102;53.548;9.926;2022-11-20T10:39:42;3.30;99.90
17954;DHT22;9102;53.548;9.926;2022-11-20T10:42:22;3.50;99.90
17954;DHT22;9102;53.548;9.926;2022-11-20T10:45:09;3.70;99.90
17954;DHT22;9102;53.548;9.926;2022-11-20T10:47:40;3.60;99.90
17954;DHT22;9102;53.548;9.926;2022-11-20T10:50:16;3.70;99.90
17954;DHT22;9102;53.548;9.926;2022-11-20T10:52:54;3.70;99.90
17954;DHT22;9102;53.548;9.926;2022-11-20T10:55:28;3.80;99.90
17954;DHT22;9102;53.548;9.926;2022-11-20T10:58:01;3.80;99.90
17954;DHT22;9102;53.548;9.926;2022-11-20T11:00:33;3.40;99.90
17954;DHT22;9102;53.548;9.926;2022-11-20T11:02:59;3.30;99.90
17954;DHT22;9102;53.548;9.926;2022-11-20T11:05:41;3.40;99.90
17954;DHT22;9102;53.548;9.926;2022-11-20T11:08:12;3.30;99.90
17954;DHT22;9102;53.548;9.926;2022-11-20T11:10:47;3.40;99.90
17954;DHT22;9102;53.548;9.926;2022-11-20T11:13:20;3.30;99.90
17954;DHT22;9102;53.548;9.926;2022-11-20T11:15:47;3.30;99.90
17954;DHT22;9102;53.548;9.926;2022-11-20T11:18:23;3.40;99.90
17954;DHT22;9102;53.548;9.926;2022-11-20T11:20:53;3.60;99.90
17954;DHT22;9102;53.548;9.926;2022-11-20T11:23:30;3.50;99.90
17954;DHT22;9102;53.548;9.926;2022-11-20T11:25:59;3.50;99.90
17954;DHT22;9102;53.548;9.926;2022-11-20T11:28:27;3.30;99.90
17954;DHT22;9102;53.548;9.926;2022-11-20T11:30:55;3.20;99.90
17954;DHT22;9102;53.548;9.926;2022-11-20T11:33:23;3.30;99.90
17954;DHT22;9102;53.548;9.926;2022-11-20T11:35:53;3.30;99.90
17954;DHT22;9102;53.548;9.926;2022-11-20T11:38:28;3.30;99.90
17954;DHT22;9102;53.548;9.926;2022-11-20T11:40:56;3.50;99.90
17954;DHT22;9102;53.548;9.926;2022-11-20T11:43:25;3.50;99.90
17954;DHT22;9102;53.548;9.926;2022-11-20T11:46:25;3.70;99.90
17954;DHT22;9102;53.548;9.926;2022-11-20T11:48:57;3.70;99.90
17954;DHT22;9102;53.548;9.926;2022-11-20T11:51:31;3.50;99.90
17954;DHT22;9102;53.548;9.926;2022-11-20T11:54:01;3.50;99.90
17954;DHT22;9102;53.548;9.926;2022-11-20T11:56:30;3.50;99.90
17954;DHT22;9102;53.548;9.926;2022-11-20T11:59:01;3.50;99.90
17954;DHT22;9102;53.548;9.926;2022-11-20T12:01:33;3.30;99.90
17954;DHT22;9102;53.548;9.926;2022-11-20T12:04:07;3.30;99.90
17954;DHT22;9102;53.548;9.926;2022-11-20T12:06:44;3.30;99.90
17954;DHT22;9102;53.548;9.926;2022-11-20T12:09:12;3.50;99.90
17954;DHT22;9102;53.548;9.926;2022-11-20T12:11:44;3.50;99.90
17954;DHT22;9102;53.548;9.926;2022-11-20T12:14:16;3.50;99.90
17954;DHT22;9102;53.548;9.926;2022-11-20T12:16:49;3.60;99.90
17954;DHT22;9102;53.548;9.926;2022-11-20T12:19:18;3.70;99.90
17954;DHT22;9102;53.548;9.926;2022-11-20T12:21:55;3.70;99.90
17954;DHT22;9102;53.548;9.926;2022-11-20T12:24:38;3.60;99.90
17954;DHT22;9102;53.548;9.926;2022-11-20T12:27:25;3.50;99.90
17954;DHT22;9102;53.548;9.926;2022-11-20T12:30:02;3.50;99.90
17954;DHT22;9102;53.548;9.926;2022-11-20T12:32:44;3.50;99.90
17954;DHT22;9102;53.548;9.926;2022-11-20T12:35:28;3.40;99.90
17954;DHT22;9102;53.548;9.926;2022-11-20T12:38:26;3.50;99.90
17954;DHT22;9102;53.548;9.926;2022-11-20T12:41:02;3.70;99.90
17954;DHT22;9102;53.548;9.926;2022-11-20T12:43:35;3.70;99.90
17954;DHT22;9102;53.548;9.926;2022-11-20T12:46:29;3.60;99.90
17954;DHT22;9102;53.548;9.926;2022-11-20T12:49:12;3.60;99.90
17954;DHT22;9102;53.548;9.926;2022-11-20T12:55:03;3.80;99.90
17954;DHT22;9102;53.548;9.926;2022-11-20T12:57:42;3.80;99.90
17954;DHT22;9102;53.548;9.926;2022-11-20T13:00:16;3.90;99.90
17954;DHT22;9102;53.548;9.926;2022-11-20T13:05:53;3.80;99.90
17954;DHT22;9102;53.548;9.926;2022-11-20T13:08:24;3.70;99.90
17954;DHT22;9102;53.548;9.926;2022-11-20T13:10:58;3.60;99.90
17954;DHT22;9102;53.548;9.926;2022-11-20T13:13:40;3.60;99.90
17954;DHT22;9102;53.548;9.926;2022-11-20T13:16:17;3.70;99.90
17954;DHT22;9102;53.548;9.926;2022-11-20T13:18:46;3.80;99.90
17954;DHT22;9102;53.548;9.926;2022-11-20T13:21:15;3.80;99.90
17954;DHT22;9102;53.548;9.926;2022-11-20T13:23:42;3.80;99.90
17954;DHT22;9102;53.548;9.926;2022-11-20T13:26:18;3.80;99.90
17954;DHT22;9102;53.548;9.926;2022-11-20T13:28:46;3.90;99.90
17954;DHT22;9102;53.548;9.926;2022-11-20T13:31:30;4.00;99.90
17954;DHT22;9102;53.548;9.926;2022-11-20T13:33:58;4.10;99.90
17954;DHT22;9102;53.548;9.926;2022-11-20T13:36:28;4.20;99.90
17954;DHT22;9102;53.548;9.926;2022-11-20T13:38:57;4.20;99.90
17954;DHT22;9102;53.548;9.926;2022-11-20T13:41:27;4.10;99.90
17954;DHT22;9102;53.548;9.926;2022-11-20T13:43:58;4.20;99.90
17954;DHT22;9102;53.548;9.926;2022-11-20T13:46:36;4.30;99.90
17954;DHT22;9102;53.548;9.926;2022-11-20T13:49:08;4.30;99.90
17954;DHT22;9102;53.548;9.926;2022-11-20T13:51:41;4.30;99.90
17954;DHT22;9102;53.548;9.926;2022-11-20T14:00:44;4.00;99.90
17954;DHT22;9102;53.548;9.926;2022-11-20T14:03:17;3.90;99.90
17954;DHT22;9102;53.548;9.926;2022-11-20T14:05:50;3.90;99.90
17954;DHT22;9102;53.548;9.926;2022-11-20T14:08:25;4.00;99.90
17954;DHT22;9102;53.548;9.926;2022-11-20T14:11:03;4.00;99.90
17954;DHT22;9102;53.548;9.926;2022-11-20T14:13:30;4.00;99.90
17954;DHT22;9102;53.548;9.926;2022-11-20T14:15:58;4.00;99.90
17954;DHT22;9102;53.548;9.926;2022-11-20T14:18:26;4.00;99.90
17954;DHT22;9102;53.548;9.926;2022-11-20T14:20:53;4.00;99.90
17954;DHT22;9102;53.548;9.926;2022-11-20T14:23:24;4.10;99.90
17954;DHT22;9102;53.548;9.926;2022-11-20T14:25:51;4.10;99.90
17954;DHT22;9102;53.548;9.926;2022-11-20T14:28:24;4.10;99.90
17954;DHT22;9102;53.548;9.926;2022-11-20T14:30:52;4.00;99.90
17954;DHT22;9102;53.548;9.926;2022-11-20T14:33:20;4.10;99.90
17954;DHT22;9102;53.548;9.926;2022-11-20T14:35:51;4.00;99.90
17954;DHT22;9102;53.548;9.926;2022-11-20T14:38:23;4.00;99.90
17954;DHT22;9102;53.548;9.926;2022-11-20T14:40:51;3.90;99.90
17954;DHT22;9102;53.548;9.926;2022-11-20T14:43:21;3.80;99.90
17954;DHT22;9102;53.548;9.926;2022-11-20T14:45:54;3.80;99.90
17954;DHT22;9102;53.548;9.926;2022-11-20T14:48:28;3.70;99.90
17954;DHT22;9102;53.548;9.926;2022-11-20T14:50:55;3.70;99.90
17954;DHT22;9102;53.548;9.926;2022-11-20T14:53:23;3.70;99.90
17954;DHT22;9102;53.548;9.926;2022-11-20T14:55:56;3.70;99.90
17954;DHT22;9102;53.548;9.926;2022-11-20T14:58:25;3.70;99.90
17954;DHT22;9102;53.548;9.926;2022-11-20T15:00:56;3.70;99.90
17954;DHT22;9102;53.548;9.926;2022-11-20T15:03:31;3.60;99.90
17954;DHT22;9102;53.548;9.926;2022-11-20T15:05:58;3.60;99.90
17954;DHT22;9102;53.548;9.926;2022-11-20T15:08:25;3.50;99.90
17954;DHT22;9102;53.548;9.926;2022-11-20T15:10:53;3.50;99.90
17954;DHT22;9102;53.548;9.926;2022-11-20T15:13:25;3.60;99.90
17954;DHT22;9102;53.548;9.926;2022-11-20T15:15:54;3.60;99.90
17954;DHT22;9102;53.548;9.926;2022-11-20T15:18:25;3.60;99.90
17954;DHT22;9102;53.548;9.926;2022-11-20T15:20:55;3.60;99.90
17954;DHT22;9102;53.548;9.926;2022-11-20T15:23:22;3.50;99.90
17954;DHT22;9102;53.548;9.926;2022-11-20T15:25:49;3.50;99.90
17954;DHT22;9102;53.548;9.926;2022-11-20T15:28:18;3.50;99.90
17954;DHT22;9102;53.548;9.926;2022-11-20T15:34:11;3.50;99.90
17954;DHT22;9102;53.548;9.926;2022-11-20T15:36:39;3.40;99.90
17954;DHT22;9102;53.548;9.926;2022-11-20T15:39:06;3.40;99.90
17954;DHT22;9102;53.548;9.926;2022-11-20T15:41:33;3.40;99.90
17954;DHT22;9102;53.548;9.926;2022-11-20T15:44:00;3.30;99.90
17954;DHT22;9102;53.548;9.926;2022-11-20T15:46:29;3.40;99.90
17954;DHT22;9102;53.548;9.926;2022-11-20T15:49:03;3.40;99.90
17954;DHT22;9102;53.548;9.926;2022-11-20T15:51:34;3.40;99.90
17954;DHT22;9102;53.548;9.926;2022-11-20T15:54:03;3.40;99.90
17954;DHT22;9102;53.548;9.926;2022-11-20T15:56:30;3.40;99.90
17954;DHT22;9102;53.548;9.926;2022-11-20T15:58:58;3.40;99.90
17954;DHT22;9102;53.548;9.926;2022-11-20T16:01:25;3.50;99.90
17954;DHT22;9102;53.548;9.926;2022-11-20T16:03:52;3.50;99.90
17954;DHT22;9102;53.548;9.926;2022-11-20T16:06:18;3.40;99.90
17954;DHT22;9102;53.548;9.926;2022-11-20T16:08:47;3.50;99.90
17954;DHT22;9102;53.548;9.926;2022-11-20T16:11:15;3.50;99.90
17954;DHT22;9102;53.548;9.926;2022-11-20T16:13:42;3.40;99.90
17954;DHT22;9102;53.548;9.926;2022-11-20T16:16:29;3.40;99.90
17954;DHT22;9102;53.548;9.926;2022-11-20T16:18:57;3.40;99.90
17954;DHT22;9102;53.548;9.926;2022-11-20T16:21:23;3.40;99.90
17954;DHT22;9102;53.548;9.926;2022-11-20T16:23:58;3.50;99.90
17954;DHT22;9102;53.548;9.926;2022-11-20T16:26:30;3.50;99.90
17954;DHT22;9102;53.548;9.926;2022-11-20T16:28:58;3.40;99.90
17954;DHT22;9102;53.548;9.926;2022-11-20T16:31:25;3.40;99.90
17954;DHT22;9102;53.548;9.926;2022-11-20T16:33:54;3.40;99.90
17954;DHT22;9102;53.548;9.926;2022-11-20T16:36:22;3.50;99.90
17954;DHT22;9102;53.548;9.926;2022-11-20T16:38:52;3.50;99.90
17954;DHT22;9102;53.548;9.926;2022-11-20T16:41:20;3.50;99.90